Apolinario Saravia, Argentina
Current Conditions -  °F | °C
As of 8:00 AM on Wednesday 26 Nov 2014 (Local Time) from SASJ Reporting Station
Drizzle Drizzle  
Wind Chill: 64°   Ceiling: 1000
Heat Index: 64°   Visibility: 1.8mi
Dew Point: 64°   Wind: 6mph
Humidity: 100%   Direction: 160°SSE
Pressure: 29.97"   Gusts: NA
Location:  24.56°S, 64.14°W
Report Text: SASJ 261100Z 16005KT 3000 -DZ BR SCT005OVC010 18/18 Q1015
Loading
Personal Weather Stations






























Interactive Weather Map New forecast layout! Learn more

10-Day Weather Forecast

Advertisements
Track Severe Weather on mobile